Time;durP1;ratioP1;P1;durP2;ratioP2;P2;SDS_P1;SDS_P2;PMS_P1;PMS_P2;Temp;Humidity;BMP_temperature;BMP_pressure;BME280_temperature;BME280_humidity;BME280_pressure;Samples;Min_cycle;Max_cycle;Signal;HPM_P1;HPM_P2
2022/06/23 00:00:37;;;;;;;13.05;7.88;;;;;;;17.14;66.14;101106.03;5048473;28;20129;-70
2022/06/23 00:03:05;;;;;;;14.68;8.25;;;;;;;16.98;67.86;101099.50;5044563;28;20053;-70
2022/06/23 00:05:39;;;;;;;13.68;8.68;;;;;;;16.97;67.61;101103.41;5048460;28;20017;-69
2022/06/23 00:08:09;;;;;;;16.65;8.90;;;;;;;16.84;69.29;101104.72;5046489;28;20087;-70
2022/06/23 00:10:45;;;;;;;12.35;8.77;;;;;;;16.84;69.27;101099.16;5031382;28;20037;-70
2022/06/23 00:13:16;;;;;;;12.75;8.45;;;;;;;16.81;69.92;101102.47;5039612;28;20602;-70
2022/06/23 00:15:44;;;;;;;14.70;9.20;;;;;;;16.81;70.07;101094.13;5046694;28;20396;-70
2022/06/23 00:18:25;;;;;;;16.10;9.35;;;;;;;16.82;69.49;101098.56;5044502;28;20148;-70
2022/06/23 00:20:57;;;;;;;13.63;10.52;;;;;;;16.75;71.09;101101.59;5047969;28;20035;-70
2022/06/23 00:23:28;;;;;;;19.10;11.02;;;;;;;16.76;71.45;101103.25;5047095;28;20501;-70
2022/06/23 00:26:09;;;;;;;15.10;9.48;;;;;;;16.73;71.47;101100.19;5047912;28;20108;-70
2022/06/23 00:28:46;;;;;;;15.07;9.45;;;;;;;16.67;72.46;101101.19;5047911;28;20028;-70
2022/06/23 00:31:32;;;;;;;16.40;10.60;;;;;;;16.77;71.35;101090.22;5046325;28;20487;-69
2022/06/23 00:34:01;;;;;;;16.45;10.98;;;;;;;16.66;73.35;101092.03;5047130;28;20109;-70
2022/06/23 00:36:32;;;;;;;22.00;11.95;;;;;;;16.67;73.30;101090.09;5047056;28;20389;-70
2022/06/23 00:38:58;;;;;;;15.60;11.05;;;;;;;16.63;73.50;101089.81;5047541;28;20060;-70
2022/06/23 00:41:29;;;;;;;15.93;10.85;;;;;;;16.60;73.96;101093.94;5045689;28;20497;-70
2022/06/23 00:44:00;;;;;;;18.67;11.25;;;;;;;16.53;74.86;101095.28;5045335;28;20024;-70
2022/06/23 00:46:36;;;;;;;20.45;11.70;;;;;;;16.43;75.46;101103.50;5046463;28;20142;-71
2022/06/23 00:49:26;;;;;;;17.00;11.50;;;;;;;16.44;74.49;101102.41;5044054;28;20036;-70
2022/06/23 00:52:02;;;;;;;16.77;12.10;;;;;;;16.35;75.63;101108.41;5047094;28;20424;-70
2022/06/23 00:54:32;;;;;;;19.25;11.85;;;;;;;16.30;76.21;101100.06;5044592;28;20052;-71
2022/06/23 00:57:09;;;;;;;18.67;12.43;;;;;;;16.32;76.29;101105.31;5045194;28;20025;-70
2022/06/23 01:00:04;;;;;;;16.98;12.32;;;;;;;16.27;76.41;101096.97;5046896;28;20263;-70
2022/06/23 01:02:38;;;;;;;17.00;12.25;;;;;;;16.18;77.83;101093.84;5036034;28;20116;-70
2022/06/23 01:05:12;;;;;;;20.48;11.98;;;;;;;16.18;77.90;101088.31;5047140;28;20022;-70
2022/06/23 01:07:57;;;;;;;18.40;13.75;;;;;;;16.20;76.99;101090.81;5040410;23;20056;-70
2022/06/23 01:10:43;;;;;;;21.80;13.20;;;;;;;16.15;78.07;101090.75;5026346;28;20025;-70
2022/06/23 01:13:37;;;;;;;22.00;13.65;;;;;;;16.20;77.33;101086.09;5025640;28;20065;-70
2022/06/23 01:16:26;;;;;;;21.80;14.43;;;;;;;16.22;77.60;101077.50;5012413;28;20051;-70
2022/06/23 01:19:09;;;;;;;23.65;14.85;;;;;;;16.16;78.58;101079.41;5024546;28;20412;-69
2022/06/23 01:21:45;;;;;;;26.67;14.98;;;;;;;16.10;79.41;101088.78;5024515;28;20036;-70
2022/06/23 01:24:22;;;;;;;25.17;16.10;;;;;;;16.15;79.12;101082.44;5026805;28;20160;-70
2022/06/23 01:26:55;;;;;;;26.55;16.30;;;;;;;16.06;79.92;101071.81;5025975;28;20033;-70
2022/06/23 01:29:28;;;;;;;23.17;15.55;;;;;;;16.12;79.85;101064.44;5027336;28;20030;-70
2022/06/23 01:32:05;;;;;;;25.17;16.88;;;;;;;15.99;80.53;101071.22;5025584;28;20040;-70
2022/06/23 01:34:49;;;;;;;26.25;17.30;;;;;;;16.00;80.08;101070.09;5025719;28;20410;-70
2022/06/23 01:37:23;;;;;;;29.67;18.15;;;;;;;15.94;81.28;101075.88;5025640;28;20026;-70
2022/06/23 01:40:13;;;;;;;30.48;17.33;;;;;;;15.93;80.94;101075.03;5026594;28;20021;-70
2022/06/23 01:43:02;;;;;;;31.40;18.35;;;;;;;15.95;80.91;101078.38;5024098;28;20022;-70
2022/06/23 01:45:45;;;;;;;31.55;17.95;;;;;;;15.91;81.47;101079.97;5026113;28;20083;-70
2022/06/23 01:48:16;;;;;;;32.72;18.23;;;;;;;15.89;81.44;101079.41;5024371;28;20369;-70
2022/06/23 01:50:49;;;;;;;26.80;17.92;;;;;;;15.81;82.11;101077.97;5026792;28;20029;-70
2022/06/23 01:53:21;;;;;;;29.88;18.10;;;;;;;15.81;81.81;101083.50;5026260;28;20140;-70
2022/06/23 01:56:26;;;;;;;27.17;17.70;;;;;;;15.78;81.68;101083.19;5027113;28;20050;-70
2022/06/23 01:59:02;;;;;;;31.23;18.50;;;;;;;15.66;82.87;101088.88;5023540;28;20045;-68
2022/06/23 02:01:30;;;;;;;26.30;17.75;;;;;;;15.60;83.12;101089.00;5025982;28;20220;-71
2022/06/23 02:04:06;;;;;;;28.20;18.50;;;;;;;15.54;83.30;101075.09;5022507;28;20071;-71
2022/06/23 02:06:43;;;;;;;27.40;18.40;;;;;;;15.53;83.62;101070.66;5026095;28;20048;-70
2022/06/23 02:09:31;;;;;;;29.65;18.73;;;;;;;15.55;82.76;101070.41;5023493;28;20502;-70
2022/06/23 02:11:57;;;;;;;29.83;19.17;;;;;;;15.47;83.40;101073.63;5024685;28;20112;-71
2022/06/23 02:14:33;;;;;;;30.95;18.98;;;;;;;15.44;83.99;101074.97;5024476;28;20426;-73
2022/06/23 02:17:10;;;;;;;31.00;19.85;;;;;;;15.38;84.21;101076.00;5023642;28;20124;-70
2022/06/23 02:19:52;;;;;;;32.50;19.63;;;;;;;15.38;83.92;101070.47;5025387;28;20310;-70
2022/06/23 02:22:37;;;;;;;31.25;19.00;;;;;;;15.35;83.91;101070.97;5025740;28;20037;-71
2022/06/23 02:25:36;;;;;;;29.90;19.20;;;;;;;15.40;83.14;101072.97;5025174;28;20132;-70
2022/06/23 02:28:21;;;;;;;34.60;20.35;;;;;;;15.39;83.89;101074.91;4988612;28;20048;-70
2022/06/23 02:30:53;;;;;;;32.22;18.65;;;;;;;15.37;83.72;101079.03;5026399;28;20025;-69
2022/06/23 02:33:28;;;;;;;30.20;19.35;;;;;;;15.34;83.96;101080.38;5025832;28;20032;-72
2022/06/23 02:36:01;;;;;;;29.98;19.10;;;;;;;15.31;83.89;101072.59;5024211;28;20026;-72
2022/06/23 02:38:34;;;;;;;33.25;19.88;;;;;;;15.25;84.33;101070.84;5023950;28;20135;-72
2022/06/23 02:41:05;;;;;;;29.45;19.55;;;;;;;15.19;84.47;101071.88;5024910;28;20223;-72
2022/06/23 02:43:47;;;;;;;31.60;20.23;;;;;;;15.22;84.30;101071.38;5025499;28;20017;-72
2022/06/23 02:46:42;;;;;;;31.80;19.50;;;;;;;15.17;84.67;101072.13;5023542;28;20379;-72
2022/06/23 02:49:29;;;;;;;29.00;19.83;;;;;;;15.17;84.41;101063.00;5025257;28;20060;-72
2022/06/23 02:52:12;;;;;;;32.95;20.35;;;;;;;15.15;84.46;101065.16;5018608;28;20045;-73
2022/06/23 02:54:56;;;;;;;31.40;21.25;;;;;;;15.06;84.73;101062.03;5025327;28;20029;-73
2022/06/23 02:57:42;;;;;;;31.15;20.75;;;;;;;15.11;84.14;101058.50;5024777;28;20029;-70
2022/06/23 03:00:32;;;;;;;35.83;22.10;;;;;;;15.16;83.35;101061.34;5024536;28;20029;-72
2022/06/23 03:03:08;;;;;;;31.88;20.88;;;;;;;15.22;82.42;101060.31;5022265;28;20025;-72
2022/06/23 03:05:53;;;;;;;36.03;21.52;;;;;;;15.22;82.29;101052.84;5024648;28;20115;-72
2022/06/23 03:08:49;;;;;;;30.50;20.48;;;;;;;15.22;82.78;101055.59;5024218;28;20049;-72
2022/06/23 03:11:51;;;;;;;36.13;19.77;;;;;;;15.23;81.53;101053.66;5004024;28;20036;-72
2022/06/23 03:14:13;;;;;;;35.22;20.75;;;;;;;15.28;80.81;101054.56;5004553;28;20061;-72
2022/06/23 03:16:46;;;;;;;32.78;19.88;;;;;;;15.35;79.89;101040.53;5012139;28;20025;-72
2022/06/23 03:19:26;;;;;;;35.15;21.25;;;;;;;15.41;79.78;101042.28;5024854;28;20033;-72
2022/06/23 03:22:03;;;;;;;36.45;20.15;;;;;;;15.43;79.22;101029.03;5024191;28;20100;-71
2022/06/23 03:24:42;;;;;;;29.65;19.85;;;;;;;15.45;79.13;101043.44;5027275;28;20036;-72
2022/06/23 03:27:49;;;;;;;30.48;19.02;;;;;;;15.50;78.13;101034.34;5026837;28;21441;-72
2022/06/23 03:30:34;;;;;;;31.85;18.90;;;;;;;15.57;77.89;101035.84;5024931;28;20035;-72
2022/06/23 03:33:08;;;;;;;31.27;20.25;;;;;;;15.49;77.78;101030.75;5028389;28;20045;-72
2022/06/23 03:35:37;;;;;;;32.58;20.30;;;;;;;15.44;77.57;101025.16;5028905;28;20026;-72
2022/06/23 03:41:36;;;;;;;33.05;19.33;;;;;;;15.44;77.72;101027.91;5028479;28;20608;-72
2022/06/23 03:44:11;;;;;;;31.52;18.67;;;;;;;15.44;76.75;101033.47;5008988;28;20056;-72
2022/06/23 03:46:44;;;;;;;32.50;19.45;;;;;;;15.47;76.51;101030.19;5027822;28;20033;-73
2022/06/23 03:49:41;;;;;;;35.70;19.27;;;;;;;15.53;76.35;101029.13;5028275;28;20029;-73
2022/06/23 03:52:22;;;;;;;35.80;19.23;;;;;;;15.55;76.00;101028.88;5026742;28;20151;-72
2022/06/23 03:54:57;;;;;;;34.30;18.30;;;;;;;15.53;75.80;101037.44;5028006;28;20030;-73
2022/06/23 03:57:31;;;;;;;26.85;17.90;;;;;;;15.55;75.49;101031.63;5027106;28;20021;-73
2022/06/23 04:00:18;;;;;;;28.63;17.55;;;;;;;15.57;75.83;101037.78;5026340;28;20052;-73
2022/06/23 04:02:48;;;;;;;32.20;18.48;;;;;;;15.57;76.51;101046.91;5027639;28;20033;-73
2022/06/23 04:05:26;;;;;;;29.70;17.88;;;;;;;15.62;75.06;101048.06;5028326;28;20071;-72
2022/06/23 04:08:00;;;;;;;28.20;18.52;;;;;;;15.63;75.36;101053.38;5028120;28;20053;-70
2022/06/23 04:10:39;;;;;;;27.83;18.23;;;;;;;15.64;74.60;101048.66;5027006;28;20065;-73
2022/06/23 04:13:36;;;;;;;30.10;17.40;;;;;;;15.71;74.75;101050.16;5027980;28;20413;-73
2022/06/23 04:16:08;;;;;;;27.83;17.58;;;;;;;15.73;74.65;101039.66;5026625;28;20112;-72
2022/06/23 04:18:39;;;;;;;34.05;18.33;;;;;;;15.74;74.76;101046.84;5029342;28;20021;-72
2022/06/23 04:21:14;;;;;;;29.52;17.45;;;;;;;15.79;74.35;101035.00;5028254;28;20068;-72
2022/06/23 04:23:44;;;;;;;29.65;18.58;;;;;;;15.83;73.87;101038.91;5026750;28;20738;-72
2022/06/23 04:26:14;;;;;;;27.30;18.10;;;;;;;15.86;73.86;101040.31;5025966;28;20087;-71
2022/06/23 04:28:47;;;;;;;30.77;18.27;;;;;;;15.95;73.74;101041.53;5027038;28;20021;-72
2022/06/23 04:31:26;;;;;;;30.98;17.58;;;;;;;15.97;73.32;101034.63;5026423;28;20486;-71
2022/06/23 04:33:53;;;;;;;30.60;18.50;;;;;;;15.97;73.86;101037.41;5027330;28;20121;-70
2022/06/23 04:36:25;;;;;;;28.40;17.87;;;;;;;15.99;73.69;101048.22;5011613;28;20525;-71
2022/06/23 04:38:56;;;;;;;31.95;17.92;;;;;;;16.00;73.02;101047.94;5026942;28;20140;-72
2022/06/23 04:41:34;;;;;;;25.48;18.38;;;;;;;16.06;72.98;101046.06;5027180;28;20029;-72
2022/06/23 04:44:10;;;;;;;26.95;17.00;;;;;;;16.11;72.30;101036.97;5027089;28;20038;-71
2022/06/23 04:46:43;;;;;;;24.20;16.15;;;;;;;16.08;71.81;101036.41;5027239;28;20064;-72
2022/06/23 04:49:30;;;;;;;28.67;17.27;;;;;;;16.17;71.68;101022.03;5027862;28;20021;-71
2022/06/23 04:52:23;;;;;;;26.95;16.70;;;;;;;16.25;71.01;101025.19;5026393;28;20063;-71
2022/06/23 04:55:01;;;;;;;25.75;16.45;;;;;;;16.19;71.33;101028.19;5027157;28;20038;-72
2022/06/23 04:57:32;;;;;;;24.90;17.70;;;;;;;16.23;71.25;101027.38;5025023;28;20414;-72
2022/06/23 05:00:01;;;;;;;25.48;17.88;;;;;;;16.24;71.09;101053.16;5025757;28;20045;-72
2022/06/23 05:02:30;;;;;;;26.23;16.85;;;;;;;16.23;72.98;101043.19;5025158;28;20026;-72
2022/06/23 05:05:10;;;;;;;27.60;17.63;;;;;;;16.28;72.05;101044.06;5026540;28;20032;-71
2022/06/23 05:07:44;;;;;;;24.27;16.98;;;;;;;16.31;72.59;101046.28;5026054;28;20192;-72
2022/06/23 05:10:30;;;;;;;26.85;18.25;;;;;;;16.38;72.28;101048.84;5025826;28;20061;-71
2022/06/23 05:13:00;;;;;;;25.40;17.88;;;;;;;16.42;72.50;101040.81;5040201;28;20022;-71
2022/06/23 05:15:32;;;;;;;26.85;18.02;;;;;;;16.49;71.84;101036.75;5027016;28;20041;-71
2022/06/23 05:18:03;;;;;;;26.33;17.83;;;;;;;16.56;71.94;101044.81;5026891;28;20032;-72
2022/06/23 05:20:41;;;;;;;26.52;18.25;;;;;;;16.60;71.65;101046.81;5025824;28;20101;-72
2022/06/23 05:23:16;;;;;;;30.27;18.15;;;;;;;16.68;71.39;101039.09;5025213;28;20036;-73
2022/06/23 05:25:46;;;;;;;26.92;17.63;;;;;;;16.73;70.85;101040.00;5026307;28;20466;-72
2022/06/23 05:28:18;;;;;;;29.02;17.83;;;;;;;16.79;71.07;101046.41;5023443;28;20040;-71
2022/06/23 05:30:54;;;;;;;23.77;16.58;;;;;;;16.87;70.61;101048.69;5026252;28;20116;-71
2022/06/23 05:33:23;;;;;;;25.88;17.60;;;;;;;16.92;70.22;101047.88;5027212;28;20036;-71
2022/06/23 05:35:52;;;;;;;28.25;16.73;;;;;;;16.95;70.83;101045.41;5025330;28;20037;-71
2022/06/23 05:38:24;;;;;;;23.90;17.13;;;;;;;17.00;69.79;101044.59;5026525;28;20044;-71
2022/06/23 05:40:54;;;;;;;27.55;17.63;;;;;;;17.01;71.53;101038.78;5026434;28;20249;-71
2022/06/23 05:43:21;;;;;;;24.92;17.85;;;;;;;17.09;71.77;101038.28;5025395;28;20025;-71
2022/06/23 05:45:49;;;;;;;27.38;19.25;;;;;;;17.27;70.26;101030.56;5013405;28;20159;-71
2022/06/23 05:48:26;;;;;;;31.02;18.30;;;;;;;17.44;69.14;101022.88;5024975;28;20069;-71
2022/06/23 05:51:14;;;;;;;26.85;18.67;;;;;;;17.63;69.04;101020.44;5024311;28;20061;-70
2022/06/23 05:53:55;;;;;;;30.88;19.17;;;;;;;17.69;68.78;101027.69;5026550;28;20463;-71
2022/06/23 05:56:28;;;;;;;27.20;20.17;;;;;;;17.82;69.09;101026.34;5022975;28;20034;-71
2022/06/23 05:59:03;;;;;;;32.65;20.75;;;;;;;17.87;68.04;101037.47;5023603;28;20025;-71
2022/06/23 06:01:31;;;;;;;27.10;19.48;;;;;;;17.86;68.06;101036.63;5021169;28;20608;-71
2022/06/23 06:04:03;;;;;;;27.15;18.70;;;;;;;17.89;68.27;101035.25;5024705;28;20653;-71
2022/06/23 06:06:29;;;;;;;34.83;20.48;;;;;;;17.97;69.11;101043.03;5025542;28;20046;-72
2022/06/23 06:11:55;;;;;;;31.17;20.75;;;;;;;18.21;67.74;101040.59;5024186;28;20191;-72
2022/06/23 06:14:26;;;;;;;30.77;17.80;;;;;;;18.37;68.05;101038.63;5026127;28;20423;-72
2022/06/23 06:16:53;;;;;;;29.05;19.85;;;;;;;18.36;68.71;101037.81;5023237;28;20103;-72
2022/06/23 06:19:22;;;;;;;28.35;19.20;;;;;;;18.41;67.94;101034.19;5024350;28;20042;-72
2022/06/23 06:21:52;;;;;;;29.40;19.92;;;;;;;18.46;67.41;101036.97;5025807;28;20025;-71
2022/06/23 06:24:22;;;;;;;27.83;18.85;;;;;;;18.48;66.28;101028.34;5025866;28;20013;-72
2022/06/23 06:26:51;;;;;;;26.27;17.55;;;;;;;18.52;66.99;101032.25;5023516;28;20026;-72
2022/06/23 06:29:23;;;;;;;29.17;17.40;;;;;;;18.55;66.10;101028.88;5024084;28;20029;-71
2022/06/23 06:32:02;;;;;;;26.40;17.42;;;;;;;18.62;64.98;101035.00;5022156;28;20079;-72
2022/06/23 06:34:36;;;;;;;28.58;17.30;;;;;;;18.69;66.05;101034.75;5023375;28;20071;-72
2022/06/23 06:37:06;;;;;;;31.25;17.40;;;;;;;18.74;67.82;101024.44;5020379;28;20025;-70
2022/06/23 06:39:40;;;;;;;26.98;17.85;;;;;;;18.84;67.93;101029.97;5021213;28;20033;-70
2022/06/23 06:42:17;;;;;;;25.65;17.13;;;;;;;18.94;66.14;101029.13;5021967;28;20021;-70
2022/06/23 06:44:47;;;;;;;27.98;17.85;;;;;;;19.05;66.08;101033.53;5037327;28;20049;-70
2022/06/23 06:47:34;;;;;;;29.13;17.45;;;;;;;19.13;67.60;101030.19;5024655;28;20014;-70
2022/06/23 06:50:05;;;;;;;29.33;18.85;;;;;;;19.24;68.96;101044.06;5024305;28;20432;-70
2022/06/23 06:52:31;;;;;;;29.85;17.73;;;;;;;19.30;66.87;101035.41;5024555;28;20474;-70
2022/06/23 06:55:02;;;;;;;28.30;18.52;;;;;;;19.41;66.05;101033.41;5024510;28;20033;-70
2022/06/23 06:57:32;;;;;;;27.55;18.45;;;;;;;19.52;64.50;101046.19;5023624;28;20014;-69
2022/06/23 07:00:10;;;;;;;26.83;18.48;;;;;;;19.61;65.91;101035.31;5023946;28;20034;-70
2022/06/23 07:02:41;;;;;;;30.23;19.15;;;;;;;19.72;66.83;101036.94;5024462;28;20496;-70
2022/06/23 07:05:19;;;;;;;30.40;18.08;;;;;;;19.84;64.82;101031.00;5021668;28;20040;-70
2022/06/23 07:07:50;;;;;;;28.65;18.63;;;;;;;19.95;64.44;101033.44;5021137;28;20049;-68
2022/06/23 07:10:30;;;;;;;29.48;18.38;;;;;;;20.05;64.90;101029.75;5023033;28;20079;-66
2022/06/23 07:13:01;;;;;;;33.47;19.00;;;;;;;20.16;64.84;101028.53;5021039;28;20037;-67
2022/06/23 07:15:35;;;;;;;33.70;20.65;;;;;;;20.27;64.64;101025.66;5016004;28;20029;-67
2022/06/23 07:18:04;;;;;;;34.40;19.48;;;;;;;20.38;63.02;101027.28;5014196;28;20053;-67
2022/06/23 07:20:53;;;;;;;30.52;20.05;;;;;;;20.46;64.22;101035.00;5013004;28;20036;-67
2022/06/23 07:23:28;;;;;;;30.85;19.38;;;;;;;20.55;63.23;101041.66;5009554;28;20035;-66
2022/06/23 07:26:04;;;;;;;28.92;20.50;;;;;;;20.62;63.24;101044.09;5016493;28;20113;-67
2022/06/23 07:28:35;;;;;;;32.65;21.75;;;;;;;20.71;62.50;101037.59;5025138;28;20025;-67
2022/06/23 07:31:13;;;;;;;29.42;21.35;;;;;;;20.83;64.04;101045.56;5020132;28;20021;-67
2022/06/23 07:33:44;;;;;;;37.72;23.65;;;;;;;20.95;60.73;101046.00;5019676;28;20053;-66
2022/06/23 07:36:33;;;;;;;38.58;24.52;;;;;;;21.04;60.69;101045.38;5023789;28;20394;-66
2022/06/23 07:39:08;;;;;;;33.53;22.35;;;;;;;21.15;63.32;101044.13;5019419;28;20033;-67
2022/06/23 07:41:51;;;;;;;33.60;22.50;;;;;;;21.23;61.96;101038.69;5012881;28;20021;-67
2022/06/23 07:44:26;;;;;;;38.60;24.65;;;;;;;21.32;63.14;101033.31;5022067;28;20702;-67
2022/06/23 07:46:52;;;;;;;36.97;25.55;;;;;;;21.45;62.22;101034.56;5022209;28;20458;-67
2022/06/23 07:49:17;;;;;;;38.50;25.75;;;;;;;21.55;61.84;101033.59;5021380;28;20037;-67
2022/06/23 07:51:43;;;;;;;48.55;25.30;;;;;;;21.69;63.87;101024.16;5022220;28;20057;-67
2022/06/23 07:54:18;;;;;;;37.90;25.40;;;;;;;21.82;63.22;101038.53;5022661;28;20186;-67
2022/06/23 07:56:44;;;;;;;43.72;26.38;;;;;;;21.92;62.07;101027.19;5006095;28;20022;-67
2022/06/23 07:59:33;;;;;;;48.53;28.48;;;;;;;21.99;62.03;101027.63;5013977;28;20394;-67
2022/06/23 08:02:14;;;;;;;41.72;26.10;;;;;;;22.03;60.66;101023.94;5022760;28;20048;-67
2022/06/23 08:05:05;;;;;;;43.15;26.42;;;;;;;22.16;60.81;101024.34;5024943;28;20661;-67
2022/06/23 08:07:31;;;;;;;42.65;28.63;;;;;;;22.27;63.43;101029.47;5023991;28;20140;-71
2022/06/23 08:10:11;;;;;;;45.47;26.85;;;;;;;22.34;61.15;101017.03;5025787;28;20036;-77
2022/06/23 08:12:55;;;;;;;47.08;26.75;;;;;;;22.49;63.91;101031.59;5027657;28;20044;-69
2022/06/23 08:18:27;;;;;;;36.97;24.73;;;;;;;22.67;61.26;101021.50;5027871;28;20149;-69
2022/06/23 08:21:01;;;;;;;39.08;25.85;;;;;;;22.70;59.62;101009.66;5019739;28;20513;-71
2022/06/23 08:23:29;;;;;;;37.08;24.10;;;;;;;22.84;64.04;101015.31;5015059;28;20076;-66
2022/06/23 08:25:54;;;;;;;;;;;;;;;22.91;61.24;101015.78;5025377;28;20474;-66
2022/06/23 08:28:20;;;;;;;33.17;22.50;;;;;;;23.00;60.73;101011.09;5026217;28;19916;-68
2022/06/23 08:30:46;;;;;;;37.50;21.67;;;;;;;23.08;61.93;101008.72;5027223;28;20022;-67
2022/06/23 08:33:12;;;;;;;32.38;22.25;;;;;;;23.17;63.00;101016.09;5027784;28;20021;-68
2022/06/23 08:35:50;;;;;;;31.08;20.27;;;;;;;23.25;60.20;101015.34;5026699;28;20075;-69
2022/06/23 08:38:31;;;;;;;30.92;17.73;;;;;;;23.41;62.53;101013.06;5022004;28;20041;-73
2022/06/23 08:41:45;;;;;;;29.65;20.38;;;;;;;23.52;59.29;101019.28;5022959;28;20085;-70
2022/06/23 08:44:49;;;;;;;24.67;17.42;;;;;;;23.64;59.24;101008.38;5009136;28;20604;-75
2022/06/23 08:47:18;;;;;;;21.67;17.27;;;;;;;23.79;59.45;101013.66;5010952;28;20042;-69
2022/06/23 08:50:10;;;;;;;27.55;18.27;;;;;;;23.90;58.82;101010.59;5025007;28;20481;-71
2022/06/23 08:52:43;;;;;;;23.52;16.83;;;;;;;24.04;58.03;101005.78;5000580;28;20041;-78
2022/06/23 08:55:33;;;;;;;23.73;14.73;;;;;;;24.21;59.55;101019.13;5020662;28;20037;-69
2022/06/23 08:58:24;;;;;;;22.73;16.48;;;;;;;24.40;57.53;101016.16;5018102;28;20470;-68
2022/06/23 09:00:57;;;;;;;28.60;16.35;;;;;;;24.49;56.97;101017.03;5023999;28;20401;-69
2022/06/23 09:03:37;;;;;;;24.70;15.75;;;;;;;24.55;57.04;101012.94;5025137;28;20113;-70
2022/06/23 09:06:47;;;;;;;22.30;14.98;;;;;;;24.67;57.92;101009.53;5023806;28;20041;-64
2022/06/23 09:09:27;;;;;;;21.83;13.82;;;;;;;25.05;57.88;101007.09;4984215;28;20408;-77
2022/06/23 09:11:56;;;;;;;22.35;15.65;;;;;;;25.08;56.69;101003.66;5006653;28;20026;-66
2022/06/23 09:14:55;;;;;;;17.70;14.38;;;;;;;25.22;57.86;100995.94;5035275;28;20167;-66
2022/06/23 09:18:11;;;;;;;21.55;13.90;;;;;;;25.33;58.51;100994.47;5029703;28;20029;-66
2022/06/23 09:20:39;;;;;;;16.98;13.63;;;;;;;25.61;60.96;100994.22;4980816;28;20061;-66
2022/06/23 09:23:34;;;;;;;22.02;14.30;;;;;;;25.74;57.56;100989.59;5022974;28;20069;-67
2022/06/23 09:26:17;;;;;;;21.95;12.68;;;;;;;25.94;57.08;100999.38;5026131;28;20052;-67
2022/06/23 09:28:54;;;;;;;17.77;13.38;;;;;;;26.22;54.80;100983.00;5026022;28;20030;-66
2022/06/23 09:31:41;;;;;;;16.75;10.07;;;;;;;26.44;55.89;100982.00;5010846;28;20025;-67
2022/06/23 09:34:25;;;;;;;14.25;8.48;;;;;;;26.76;56.17;100983.38;5027092;28;20227;-66
2022/06/23 09:36:59;;;;;;;16.13;8.40;;;;;;;27.40;51.36;100981.28;5011252;28;20032;-67
2022/06/23 09:39:27;;;;;;;14.88;7.35;;;;;;;28.55;47.20;100985.69;5036175;28;20024;-73
2022/06/23 09:42:16;;;;;;;11.68;6.85;;;;;;;30.19;45.15;100974.06;5022824;28;20033;-72
2022/06/23 09:44:58;;;;;;;22.65;7.40;;;;;;;32.07;41.65;100990.56;5036085;28;20835;-73
2022/06/23 09:47:35;;;;;;;13.38;6.07;;;;;;;33.88;41.14;100978.75;5031399;28;20043;-73
2022/06/23 09:50:16;;;;;;;12.02;5.18;;;;;;;35.51;36.42;100981.69;5025236;28;20080;-72
2022/06/23 09:53:19;;;;;;;12.50;5.43;;;;;;;36.11;33.73;100977.53;5025643;28;20892;-74
2022/06/23 09:56:01;;;;;;;12.45;5.13;;;;;;;35.92;32.33;100974.97;5025182;28;20059;-76
2022/06/23 09:58:57;;;;;;;11.32;4.25;;;;;;;36.70;33.90;100968.72;5013045;28;20017;-75
2022/06/23 10:01:37;;;;;;;9.27;4.33;;;;;;;36.96;30.36;100974.09;5020466;28;20080;-77
2022/06/23 10:04:20;;;;;;;9.35;4.13;;;;;;;37.45;33.13;100974.47;5018675;28;20052;-76
2022/06/23 10:07:34;;;;;;;8.52;3.50;;;;;;;38.92;32.10;100975.47;5025528;28;20414;-75
2022/06/23 10:10:11;;;;;;;13.93;4.75;;;;;;;38.22;29.11;100977.50;5016766;28;20045;-75
2022/06/23 10:12:54;;;;;;;9.65;3.80;;;;;;;37.74;28.38;100975.22;5022128;28;20040;-75
2022/06/23 10:15:46;;;;;;;12.82;3.95;;;;;;;38.27;28.99;100968.47;5021219;28;20505;-74
2022/06/23 10:18:33;;;;;;;10.75;3.40;;;;;;;39.63;28.39;100971.16;5009874;28;20037;-75
2022/06/23 10:21:22;;;;;;;12.18;4.32;;;;;;;39.90;28.44;100965.50;5020095;28;20482;-73
2022/06/23 10:24:11;;;;;;;11.20;3.47;;;;;;;39.74;27.43;100962.38;5025899;28;20016;-74
2022/06/23 10:27:05;;;;;;;10.20;4.10;;;;;;;39.00;27.50;100953.25;5023682;28;20696;-73
2022/06/23 10:29:42;;;;;;;13.45;3.83;;;;;;;39.50;27.09;100959.34;5025439;28;20025;-75
2022/06/23 10:32:26;;;;;;;14.65;4.30;;;;;;;37.00;28.70;100959.75;5023217;28;20496;-75
2022/06/23 10:34:57;;;;;;;12.18;4.18;;;;;;;35.40;30.85;100959.97;5005352;28;20030;-75
2022/06/23 10:37:50;;;;;;;11.48;4.45;;;;;;;35.40;32.53;100951.41;5017753;28;20039;-75
2022/06/23 10:40:49;;;;;;;13.55;4.47;;;;;;;35.17;33.09;100951.63;5022773;28;20025;-73
2022/06/23 10:43:31;;;;;;;13.23;4.75;;;;;;;34.67;35.22;100954.03;5024539;28;20091;-74
2022/06/23 10:46:01;;;;;;;13.57;5.20;;;;;;;33.39;36.30;100939.78;5024308;28;20074;-74
2022/06/23 10:48:39;;;;;;;16.33;5.50;;;;;;;32.29;38.52;100950.03;5020094;28;20033;-73
2022/06/23 10:51:29;;;;;;;16.48;5.22;;;;;;;31.25;41.70;100932.72;5022664;28;20030;-73
2022/06/23 10:54:26;;;;;;;13.18;5.57;;;;;;;31.15;42.67;100934.09;5025246;28;20065;-74
2022/06/23 10:56:51;;;;;;;;;;;;;;;31.48;41.49;100921.53;5009055;28;20040;-68
2022/06/23 10:59:26;;;;;;;14.57;5.88;;;;;;;31.22;40.67;100927.75;5024350;28;20347;-73
2022/06/23 11:02:13;;;;;;;12.18;5.45;;;;;;;31.27;41.51;100927.50;5023706;28;20053;-73
2022/06/23 11:04:42;;;;;;;13.75;5.32;;;;;;;31.25;40.79;100927.84;5023507;28;20033;-74
2022/06/23 11:07:36;;;;;;;17.83;6.10;;;;;;;31.54;42.53;100925.72;5021761;28;20049;-74
2022/06/23 11:10:23;;;;;;;16.67;6.65;;;;;;;31.58;41.24;100920.09;5020675;28;20474;-71
2022/06/23 11:13:30;;;;;;;15.18;6.55;;;;;;;31.52;41.60;100923.22;5101941;23;21932;-61
2022/06/23 11:16:29;;;;;;;16.30;7.10;;;;;;;31.05;41.56;100928.19;5049032;28;20060;-60
2022/06/23 11:19:16;;;;;;;15.32;6.38;;;;;;;30.53;43.97;100927.25;5059897;28;20034;-61
2022/06/23 11:21:59;;;;;;;14.45;7.53;;;;;;;30.06;43.99;100918.59;5063728;28;20029;-61
2022/06/23 11:24:43;;;;;;;14.57;6.90;;;;;;;30.23;44.64;100912.66;5061910;28;20024;-61
2022/06/23 11:27:26;;;;;;;23.50;8.02;;;;;;;29.98;45.96;100920.44;5063739;28;20391;-62
2022/06/23 11:30:08;;;;;;;13.95;6.60;;;;;;;30.29;47.06;100916.88;5062089;28;20029;-61
2022/06/23 11:32:42;;;;;;;19.35;7.82;;;;;;;30.75;45.05;100914.47;5063683;28;20028;-62
2022/06/23 11:35:32;;;;;;;16.67;7.53;;;;;;;30.88;43.76;100912.38;5062202;28;20404;-63
2022/06/23 11:37:57;;;;;;;15.68;7.15;;;;;;;30.75;45.05;100905.97;5046313;28;20041;-61
2022/06/23 11:41:05;;;;;;;15.70;7.63;;;;;;;30.73;44.94;100900.66;5064986;28;20135;-62
2022/06/23 11:43:53;;;;;;;15.45;7.25;;;;;;;30.62;43.90;100901.56;5064785;28;20056;-62
2022/06/23 11:46:24;;;;;;;14.30;7.85;;;;;;;31.06;43.16;100907.94;5067078;28;20033;-61
2022/06/23 11:49:26;;;;;;;16.55;6.65;;;;;;;30.60;44.51;100904.75;5068715;28;20051;-61
2022/06/23 11:52:22;;;;;;;16.10;6.00;;;;;;;30.03;43.14;100905.19;5060869;28;20546;-65
2022/06/23 11:55:03;;;;;;;13.65;5.63;;;;;;;29.90;45.21;100905.22;5068146;28;20036;-61
2022/06/23 11:57:47;;;;;;;12.23;5.90;;;;;;;30.34;47.09;100893.94;5069404;28;20093;-62
2022/06/23 12:00:17;;;;;;;18.38;9.77;;;;;;;30.95;44.75;100887.81;5068599;28;20029;-61
2022/06/23 12:03:01;;;;;;;15.38;7.10;;;;;;;31.32;41.44;100893.16;5064940;28;20111;-61
2022/06/23 12:05:55;;;;;;;14.80;5.47;;;;;;;31.45;40.30;100891.84;5059346;28;20059;-62
2022/06/23 12:08:42;;;;;;;11.85;5.68;;;;;;;31.86;40.15;100895.19;5069280;28;20028;-60
2022/06/23 12:11:07;;;;;;;17.58;6.60;;;;;;;31.74;40.65;100901.00;5050038;28;20036;-63
2022/06/23 12:13:36;;;;;;;12.85;5.15;;;;;;;31.42;40.50;100895.44;5052261;28;20169;-62